Impacts METAR Board
IDs:

KCLE - Cleveland/Hopkins In, OH, US

Updated at: 2000 UTC 08 Feb 2023
Potential Impact None Slight Moderate High
Time 08/08Z 08/09Z 08/10Z 08/11Z 08/12Z 08/13Z 08/14Z 08/15Z 08/16Z 08/17Z 08/18Z 08/19Z 08/20Z
Temp37 36 36 36 36 36 37 38 40 42 43 44 46
Dewpt27 27 26 26 26 26 26 25 25 26 26 25 26
Altim30.20 30.21 30.23 30.25 30.26 30.28 30.29 30.29 30.31 30.31 30.28 30.25 30.24
VIS10 10 10 10 10 10 10 10 10 10 10 10 10
CIG24 24 23 23 24 24 24 250 250 250 250 250 250
CoverOVCOVCOVCOVCOVCOVCOVCBKNBKNBKNBKNBKNBKN
FltCatMVFRMVFRMVFRMVFRMVFRMVFRMVFRVFRVFRVFRVFRVFRVFR
WX--------------------------
WDir290290270270290250014019019020000
WSpd8 6 6 7 6 3 0 4 3 5 4 3 0
WGst-- -- -- -- -- -- -- -- -- -- -- -- --
Raw hourly METARs
KCLE 080751Z 29008KT 10SM OVC024 03/M03 A3020 RMK AO2 SLP247 T00281028 $
KCLE 080851Z 29006KT 10SM OVC024 02/M03 A3021 RMK AO2 SLP250 T00221028 51015 $
KCLE 080951Z 27006KT 10SM OVC023 02/M03 A3023 RMK AO2 SLP259 T00221033 $
KCLE 081051Z 27007KT 10SM OVC023 02/M03 A3025 RMK AO2 SLP264 T00221033 $
KCLE 081151Z 29006KT 10SM OVC024 02/M03 A3026 RMK AO2 SLP266 T00221033 10028 20017 51016 $
KCLE 081251Z 25003KT 10SM OVC024 02/M03 A3028 RMK AO2 SLPNO T00221033 $
KCLE 081351Z 00000KT 10SM OVC024 03/M03 A3029 RMK AO2 SLP279 T00281033
KCLE 081451Z 14004KT 10SM SCT025 BKN250 03/M04 A3029 RMK AO2 SLP282 T00331039 51012
KCLE 081551Z 19003KT 10SM BKN250 04/M04 A3031 RMK AO2 SLP288 T00441039
KCLE 081651Z 19005KT 10SM BKN250 06/M03 A3031 RMK AO2 SLP286 T00561033
KCLE 081751Z 20004KT 10SM BKN250 06/M03 A3028 RMK AO2 SLP275 T00611033 10067 20022 58005
KCLE 081851Z VRB03KT 10SM BKN250 07/M04 A3025 RMK AO2 SLP266 T00671039
KCLE 081951Z 00000KT 10SM BKN250 08/M03 A3024 RMK AO2 SLP262 T00781033



Page loaded:  20:04 UTC  |   12:04 PM Pacific  |   01:04 PM Mountain  |   02:04 PM Central  |   03:04 PM Eastern

 

ADVISORIES

FORECASTS

FORECASTS

OBSERVATIONS

USER TOOLS

ABOUT US